createdAt,value
2023-03-29T00:01:34.892Z,4.51
2023-03-29T00:04:05.985Z,4.54
2023-03-29T00:06:33.463Z,4.60
2023-03-29T00:09:01.648Z,4.63
2023-03-29T00:11:28.099Z,4.54
2023-03-29T00:13:54.856Z,4.58
2023-03-29T00:16:21.388Z,4.64
2023-03-29T00:18:47.920Z,4.63
2023-03-29T00:21:14.505Z,4.65
2023-03-29T00:23:41.020Z,4.66
2023-03-29T00:26:08.388Z,4.38
2023-03-29T00:28:35.492Z,4.61
2023-03-29T00:31:15.946Z,4.66
2023-03-29T00:33:43.797Z,4.65
2023-03-29T00:36:12.373Z,4.61
2023-03-29T00:38:39.616Z,4.61
2023-03-29T00:41:07.942Z,4.60
2023-03-29T00:44:01.039Z,4.59
2023-03-29T00:46:30.308Z,4.50
2023-03-29T00:49:12.779Z,4.53
2023-03-29T00:51:41.420Z,4.49
2023-03-29T00:54:14.549Z,4.48
2023-03-29T00:56:46.948Z,4.49
2023-03-29T00:59:18.646Z,4.57
2023-03-29T01:01:46.943Z,4.62
2023-03-29T01:04:19.559Z,4.55
2023-03-29T01:06:54.175Z,4.64
2023-03-29T01:09:24.309Z,4.69
2023-03-29T01:11:55.640Z,4.73
2023-03-29T01:14:36.659Z,4.75
2023-03-29T01:17:04.636Z,4.67
2023-03-29T01:19:38.668Z,4.70
2023-03-29T01:22:25.938Z,4.63
2023-03-29T01:25:06.008Z,4.55
2023-03-29T01:27:54.772Z,4.53
2023-03-29T01:30:31.869Z,4.63
2023-03-29T01:33:21.590Z,4.46
2023-03-29T01:36:08.107Z,4.51
2023-03-29T01:38:43.200Z,4.52
2023-03-29T01:41:12.126Z,4.62
2023-03-29T01:44:12.331Z,4.60
2023-03-29T01:46:46.283Z,4.66
2023-03-29T01:49:28.689Z,4.69
2023-03-29T01:52:01.168Z,4.61
2023-03-29T01:55:17.299Z,4.70
2023-03-29T01:57:47.670Z,4.74
2023-03-29T02:00:22.279Z,4.69
2023-03-29T02:02:51.229Z,4.68
2023-03-29T02:05:20.621Z,4.70
2023-03-29T02:07:50.414Z,4.68
2023-03-29T02:10:18.726Z,4.71
2023-03-29T02:12:45.361Z,4.67
2023-03-29T02:15:15.709Z,4.66
2023-03-29T02:17:44.079Z,4.55
2023-03-29T02:20:17.351Z,4.62
2023-03-29T02:22:52.110Z,4.52
2023-03-29T02:25:19.217Z,4.36
2023-03-29T02:27:46.136Z,4.43
2023-03-29T02:30:15.675Z,4.48
2023-03-29T02:32:56.909Z,4.35
2023-03-29T02:35:38.407Z,4.27
2023-03-29T02:38:10.477Z,4.28
2023-03-29T02:40:39.071Z,4.20
2023-03-29T02:43:07.151Z,4.15
2023-03-29T02:45:36.450Z,3.93
2023-03-29T02:48:06.477Z,3.88
2023-03-29T02:50:39.492Z,3.82
2023-03-29T02:53:14.587Z,3.85
2023-03-29T02:55:46.066Z,3.78
2023-03-29T02:58:14.073Z,3.66
2023-03-29T03:00:44.849Z,3.65
2023-03-29T03:03:12.593Z,3.59
2023-03-29T03:05:39.262Z,3.46
2023-03-29T03:08:07.500Z,3.50
2023-03-29T03:10:35.295Z,3.46
2023-03-29T03:13:03.952Z,3.30
2023-03-29T03:15:35.553Z,3.12
2023-03-29T03:18:03.725Z,3.13
2023-03-29T03:20:31.210Z,3.12
2023-03-29T03:22:58.546Z,3.15
2023-03-29T03:25:25.400Z,3.11
2023-03-29T03:27:53.089Z,3.16
2023-03-29T03:30:22.000Z,3.08
2023-03-29T03:33:07.838Z,3.04
2023-03-29T03:36:02.990Z,3.04
2023-03-29T03:38:31.936Z,3.10
2023-03-29T03:41:01.400Z,3.05
2023-03-29T03:43:31.868Z,3.08
2023-03-29T03:45:58.376Z,3.09
2023-03-29T03:48:25.989Z,3.01
2023-03-29T03:51:18.505Z,3.00
2023-03-29T03:53:45.726Z,2.86
2023-03-29T03:56:13.334Z,2.82
2023-03-29T03:59:09.344Z,2.85
2023-03-29T04:01:45.442Z,2.74
2023-03-29T04:04:20.025Z,2.45
2023-03-29T04:07:02.667Z,2.77
2023-03-29T04:09:38.912Z,2.72
2023-03-29T04:12:40.993Z,2.65
2023-03-29T04:15:10.436Z,2.51
2023-03-29T04:17:39.048Z,2.32
2023-03-29T04:20:27.084Z,2.44
2023-03-29T04:22:53.932Z,2.50
2023-03-29T04:25:23.924Z,2.53
2023-03-29T04:28:10.949Z,2.39
2023-03-29T04:30:52.160Z,2.44
2023-03-29T04:33:29.341Z,2.36
2023-03-29T04:35:59.704Z,2.42
2023-03-29T04:38:26.716Z,2.37
2023-03-29T04:40:55.693Z,2.40
2023-03-29T04:43:57.679Z,2.22
2023-03-29T04:46:26.603Z,2.23
2023-03-29T04:48:59.386Z,3.41
2023-03-29T04:51:34.114Z,3.90
2023-03-29T04:54:01.099Z,4.24
2023-03-29T04:56:27.798Z,4.61
2023-03-29T04:59:29.802Z,5.10
2023-03-29T05:01:56.438Z,5.28
2023-03-29T05:04:22.985Z,5.56
2023-03-29T05:07:02.920Z,5.62
2023-03-29T05:09:29.516Z,5.66
2023-03-29T05:11:56.103Z,5.75
2023-03-29T05:14:24.333Z,5.14
2023-03-29T05:16:50.806Z,4.62
2023-03-29T05:19:17.774Z,4.22
2023-03-29T05:21:48.112Z,3.42
2023-03-29T05:24:19.927Z,3.30
2023-03-29T05:26:53.574Z,3.10
2023-03-29T05:29:20.547Z,2.78
2023-03-29T05:31:52.998Z,2.74
2023-03-29T05:34:20.033Z,2.71
2023-03-29T05:36:51.699Z,2.66
2023-03-29T05:39:18.980Z,2.59
2023-03-29T05:41:46.439Z,2.68
2023-03-29T05:44:28.326Z,2.78
2023-03-29T05:47:02.506Z,2.75
2023-03-29T05:49:29.006Z,2.81
2023-03-29T05:52:06.596Z,2.98
2023-03-29T05:54:33.852Z,2.83
2023-03-29T05:57:01.439Z,2.61
2023-03-29T05:59:29.573Z,2.48
2023-03-29T06:01:56.526Z,2.60
2023-03-29T06:04:24.444Z,2.55
2023-03-29T06:07:07.080Z,2.53
2023-03-29T06:09:34.161Z,2.71
2023-03-29T06:12:03.908Z,2.85
2023-03-29T06:14:48.114Z,3.00
2023-03-29T06:17:33.600Z,2.99
2023-03-29T06:20:00.908Z,3.05
2023-03-29T06:22:29.793Z,2.99
2023-03-29T06:24:56.525Z,3.02
2023-03-29T06:27:28.092Z,3.02
2023-03-29T06:29:55.886Z,3.07
2023-03-29T06:32:23.301Z,3.05
2023-03-29T06:35:07.850Z,3.02
2023-03-29T06:37:41.406Z,3.04
2023-03-29T06:40:21.346Z,3.00
2023-03-29T06:42:48.405Z,3.02
2023-03-29T06:45:40.961Z,3.20
2023-03-29T06:48:17.276Z,3.24
2023-03-29T06:50:43.814Z,3.34
2023-03-29T06:53:13.741Z,3.32
2023-03-29T06:55:42.084Z,3.39
2023-03-29T06:58:38.217Z,3.38
2023-03-29T07:01:17.324Z,3.51
2023-03-29T07:03:49.500Z,3.61
2023-03-29T07:06:20.494Z,3.76
2023-03-29T07:08:50.193Z,3.85
2023-03-29T07:11:25.265Z,3.95
2023-03-29T07:13:55.421Z,4.07
2023-03-29T07:16:22.208Z,4.23
2023-03-29T07:19:17.436Z,4.32
2023-03-29T07:21:56.929Z,4.43
2023-03-29T07:24:38.504Z,4.52
2023-03-29T07:27:05.174Z,4.62
2023-03-29T07:29:33.191Z,4.79
2023-03-29T07:32:00.206Z,4.93
2023-03-29T07:34:42.122Z,5.07
2023-03-29T07:37:13.346Z,5.20
2023-03-29T07:39:42.187Z,5.31
2023-03-29T07:42:28.797Z,5.36
2023-03-29T07:44:55.924Z,5.53
2023-03-29T07:47:23.128Z,5.66
2023-03-29T07:49:50.033Z,5.79
2023-03-29T07:52:16.863Z,5.93
2023-03-29T07:54:43.491Z,6.09
2023-03-29T07:57:24.672Z,6.14
2023-03-29T07:59:54.325Z,6.31
2023-03-29T08:02:27.142Z,6.42
2023-03-29T08:04:57.209Z,6.50
2023-03-29T08:07:43.149Z,6.68
2023-03-29T08:10:37.837Z,6.81
2023-03-29T08:13:10.820Z,6.91
2023-03-29T08:15:48.847Z,7.07
2023-03-29T08:18:35.003Z,7.09
2023-03-29T08:21:02.936Z,7.17
2023-03-29T08:23:29.667Z,7.23
2023-03-29T08:26:34.281Z,7.21
2023-03-29T08:29:01.681Z,7.35
2023-03-29T08:31:28.202Z,7.50
2023-03-29T08:33:55.017Z,7.26
2023-03-29T08:36:40.518Z,7.64
2023-03-29T08:39:19.634Z,7.75
2023-03-29T08:42:08.757Z,7.85
2023-03-29T08:44:45.958Z,8.17
2023-03-29T08:47:48.453Z,8.66
2023-03-29T08:50:15.805Z,9.12
2023-03-29T08:52:52.457Z,9.53
2023-03-29T08:55:49.008Z,10.03
2023-03-29T08:58:46.560Z,10.43
2023-03-29T09:01:13.606Z,10.66
2023-03-29T09:03:59.345Z,10.80
2023-03-29T09:06:39.789Z,10.89
2023-03-29T09:09:20.652Z,10.92
2023-03-29T09:12:01.868Z,11.00
2023-03-29T09:14:35.916Z,11.08
2023-03-29T09:17:15.405Z,11.06
2023-03-29T09:20:06.299Z,10.99
2023-03-29T09:23:22.440Z,10.89
2023-03-29T09:26:22.356Z,10.91
2023-03-29T09:29:22.375Z,11.00
2023-03-29T09:31:50.143Z,11.07
2023-03-29T09:34:20.905Z,11.09
2023-03-29T09:37:29.850Z,11.26
2023-03-29T09:39:57.610Z,11.30
2023-03-29T09:42:40.395Z,11.42
2023-03-29T09:45:10.594Z,11.41
2023-03-29T09:47:52.526Z,11.45
2023-03-29T09:50:31.484Z,11.52
2023-03-29T09:53:01.508Z,11.65
2023-03-29T09:55:33.825Z,11.98
2023-03-29T09:58:27.734Z,12.22
2023-03-29T10:00:59.034Z,12.24
2023-03-29T10:03:28.439Z,12.19
2023-03-29T10:06:17.135Z,12.43
2023-03-29T10:08:56.976Z,12.63
2023-03-29T10:11:38.318Z,12.90
2023-03-29T10:14:22.917Z,13.30
2023-03-29T10:16:56.842Z,13.59
2023-03-29T10:19:32.950Z,13.64
2023-03-29T10:22:01.801Z,13.75
2023-03-29T10:24:28.506Z,13.88
2023-03-29T10:27:00.069Z,13.87
2023-03-29T10:29:27.769Z,13.86
2023-03-29T10:31:54.735Z,14.06
2023-03-29T10:34:25.765Z,14.13
2023-03-29T10:36:59.074Z,14.37
2023-03-29T10:39:29.312Z,14.53
2023-03-29T10:41:58.165Z,14.55
2023-03-29T10:44:33.161Z,14.63
2023-03-29T10:47:16.776Z,14.73
2023-03-29T10:49:47.076Z,14.95
2023-03-29T10:52:15.100Z,15.16
2023-03-29T10:54:42.076Z,15.12
2023-03-29T10:57:11.120Z,14.92
2023-03-29T11:00:09.479Z,14.78
2023-03-29T11:02:54.909Z,14.37
2023-03-29T11:05:43.135Z,14.13
2023-03-29T11:08:24.866Z,14.14
2023-03-29T11:11:15.638Z,14.07
2023-03-29T11:13:59.995Z,14.01
2023-03-29T11:16:47.099Z,13.77
2023-03-29T11:19:37.947Z,13.89
2023-03-29T11:22:24.056Z,13.87
2023-03-29T11:25:09.975Z,13.78
2023-03-29T11:27:59.506Z,13.72
2023-03-29T11:30:49.116Z,13.70
2023-03-29T11:33:30.677Z,13.60
2023-03-29T11:36:18.239Z,13.61
2023-03-29T11:38:55.575Z,13.60
2023-03-29T11:41:27.442Z,13.77
2023-03-29T11:44:19.771Z,13.91
2023-03-29T11:46:52.144Z,14.02
2023-03-29T11:49:40.366Z,14.05
2023-03-29T11:52:16.276Z,14.28
2023-03-29T11:54:50.528Z,14.42
2023-03-29T11:57:38.132Z,14.57
2023-03-29T12:00:15.858Z,14.67
2023-03-29T12:02:47.890Z,14.74
2023-03-29T12:05:33.620Z,14.93
2023-03-29T12:08:04.886Z,14.98
2023-03-29T12:10:37.855Z,15.00
2023-03-29T12:13:15.241Z,14.99
2023-03-29T12:15:48.129Z,14.91
2023-03-29T12:18:24.913Z,14.60
2023-03-29T12:20:59.446Z,14.62
2023-03-29T12:23:30.301Z,14.52
2023-03-29T12:26:06.045Z,14.74
2023-03-29T12:28:46.614Z,14.81
2023-03-29T12:31:19.406Z,14.65
2023-03-29T12:34:04.752Z,14.39
2023-03-29T12:37:32.923Z,14.37
2023-03-29T12:40:20.476Z,14.54
2023-03-29T12:43:32.470Z,14.71
2023-03-29T12:46:37.528Z,14.72
2023-03-29T12:49:28.144Z,14.60
2023-03-29T12:51:58.647Z,14.63
2023-03-29T12:54:31.285Z,14.61
2023-03-29T12:57:02.410Z,14.68
2023-03-29T12:59:46.824Z,14.71
2023-03-29T13:02:13.990Z,14.77
2023-03-29T13:04:43.573Z,14.80
2023-03-29T13:07:22.306Z,14.81
2023-03-29T13:09:51.794Z,14.85
2023-03-29T13:12:27.083Z,14.90
2023-03-29T13:15:01.079Z,15.03
2023-03-29T13:17:34.821Z,15.03
2023-03-29T13:20:31.988Z,15.09
2023-03-29T13:23:12.680Z,15.05
2023-03-29T13:25:58.276Z,15.03
2023-03-29T13:28:36.980Z,14.88
2023-03-29T13:31:23.317Z,14.94
2023-03-29T13:34:26.830Z,14.94
2023-03-29T13:37:20.939Z,14.91
2023-03-29T13:39:50.565Z,14.59
2023-03-29T13:42:35.370Z,14.36
2023-03-29T13:45:13.818Z,14.18
2023-03-29T13:47:58.322Z,13.98
2023-03-29T13:50:35.087Z,13.85
2023-03-29T13:53:15.375Z,13.90
2023-03-29T13:55:47.290Z,13.96
2023-03-29T13:58:27.373Z,14.01
2023-03-29T14:01:28.824Z,14.03
2023-03-29T14:03:56.591Z,14.07
2023-03-29T14:06:36.484Z,14.02
2023-03-29T14:09:07.156Z,14.07
2023-03-29T14:11:34.803Z,14.09
2023-03-29T14:14:05.064Z,14.14
2023-03-29T14:16:35.629Z,14.08
2023-03-29T14:19:32.936Z,13.93
2023-03-29T14:22:01.607Z,13.85
2023-03-29T14:24:35.580Z,13.93
2023-03-29T14:27:04.602Z,13.83
2023-03-29T14:29:32.764Z,13.71
2023-03-29T14:32:16.521Z,13.73
2023-03-29T14:34:47.005Z,13.75
2023-03-29T14:37:17.253Z,13.80
2023-03-29T14:39:43.680Z,13.87
2023-03-29T14:42:24.177Z,13.86
2023-03-29T14:44:51.015Z,13.86
2023-03-29T14:47:27.391Z,13.86
2023-03-29T14:49:56.815Z,13.94
2023-03-29T14:52:24.083Z,13.94
2023-03-29T14:54:56.469Z,14.03
2023-03-29T14:57:26.277Z,14.09
2023-03-29T14:59:58.537Z,14.15
2023-03-29T15:02:27.907Z,14.18
2023-03-29T15:05:18.803Z,14.12
2023-03-29T15:07:45.805Z,14.10
2023-03-29T15:10:19.097Z,14.09
2023-03-29T15:12:46.487Z,14.13
2023-03-29T15:15:13.542Z,14.09
2023-03-29T15:17:50.881Z,14.12
2023-03-29T15:20:23.910Z,14.15
2023-03-29T15:23:09.402Z,14.20
2023-03-29T15:25:48.841Z,14.20
2023-03-29T15:28:46.734Z,14.21
2023-03-29T15:31:17.629Z,14.25
2023-03-29T15:33:44.671Z,14.04
2023-03-29T15:36:13.570Z,14.18
2023-03-29T15:38:44.632Z,14.06
2023-03-29T15:41:14.200Z,14.13
2023-03-29T15:43:41.660Z,13.98
2023-03-29T15:46:10.302Z,13.89
2023-03-29T15:48:37.337Z,13.90
2023-03-29T15:51:06.392Z,13.91
2023-03-29T15:53:33.384Z,13.90
2023-03-29T15:56:02.412Z,13.93
2023-03-29T15:58:31.643Z,13.98
2023-03-29T16:01:19.145Z,13.94
2023-03-29T16:03:47.862Z,13.87
2023-03-29T16:06:16.644Z,13.72
2023-03-29T16:08:43.145Z,13.79
2023-03-29T16:11:09.856Z,13.80
2023-03-29T16:13:36.348Z,13.84
2023-03-29T16:16:03.219Z,13.84
2023-03-29T16:18:29.960Z,13.80
2023-03-29T16:20:56.943Z,13.78
2023-03-29T16:23:23.395Z,13.75
2023-03-29T16:25:49.906Z,13.80
2023-03-29T16:28:16.367Z,13.72
2023-03-29T16:30:43.036Z,13.72
2023-03-29T16:33:10.832Z,13.71
2023-03-29T16:35:39.744Z,13.66
2023-03-29T16:38:07.114Z,13.64
2023-03-29T16:40:34.219Z,13.66
2023-03-29T16:43:00.893Z,13.62
2023-03-29T16:45:27.455Z,13.58
2023-03-29T16:47:54.476Z,13.51
2023-03-29T16:50:21.808Z,13.52
2023-03-29T16:52:48.945Z,13.45
2023-03-29T16:55:18.780Z,13.20
2023-03-29T16:57:46.821Z,13.41
2023-03-29T17:00:15.888Z,13.41
2023-03-29T17:02:43.636Z,13.46
2023-03-29T17:05:11.749Z,13.43
2023-03-29T17:07:39.295Z,13.42
2023-03-29T17:10:08.188Z,13.50
2023-03-29T17:12:35.396Z,13.45
2023-03-29T17:15:02.306Z,13.47
2023-03-29T17:17:28.798Z,13.39
2023-03-29T17:19:56.568Z,13.35
2023-03-29T17:22:23.847Z,13.37
2023-03-29T17:24:51.506Z,13.28
2023-03-29T17:27:18.323Z,13.31
2023-03-29T17:29:44.754Z,13.24
2023-03-29T17:32:11.177Z,13.18
2023-03-29T17:34:38.624Z,13.13
2023-03-29T17:37:05.342Z,13.15
2023-03-29T17:39:32.077Z,13.09
2023-03-29T17:41:58.573Z,12.84
2023-03-29T17:44:25.042Z,13.01
2023-03-29T17:46:51.527Z,13.03
2023-03-29T17:49:17.971Z,13.03
2023-03-29T17:51:44.423Z,13.00
2023-03-29T17:54:11.106Z,12.96
2023-03-29T17:56:37.584Z,12.89
2023-03-29T17:59:04.008Z,12.88
2023-03-29T18:01:30.829Z,12.86
2023-03-29T18:03:57.338Z,12.80
2023-03-29T18:06:23.858Z,12.82
2023-03-29T18:08:50.324Z,12.70
2023-03-29T18:11:22.317Z,12.63
2023-03-29T18:13:50.445Z,12.52
2023-03-29T18:16:17.557Z,12.42
2023-03-29T18:18:46.284Z,12.35
2023-03-29T18:21:14.688Z,12.35
2023-03-29T18:23:44.868Z,12.38
2023-03-29T18:26:12.181Z,12.20
2023-03-29T18:28:38.622Z,12.26
2023-03-29T18:31:05.960Z,12.46
2023-03-29T18:33:35.224Z,12.41
2023-03-29T18:36:04.769Z,12.38
2023-03-29T18:38:35.033Z,12.29
2023-03-29T18:41:02.839Z,12.36
2023-03-29T18:43:30.031Z,12.31
2023-03-29T18:45:57.160Z,12.31
2023-03-29T18:48:23.718Z,12.31
2023-03-29T18:50:51.284Z,12.28
2023-03-29T18:53:18.503Z,12.19
2023-03-29T18:55:45.147Z,12.22
2023-03-29T18:58:13.229Z,12.28
2023-03-29T19:00:41.120Z,12.27
2023-03-29T19:03:08.649Z,12.31
2023-03-29T19:05:39.173Z,12.31
2023-03-29T19:08:06.956Z,12.35
2023-03-29T19:10:37.709Z,12.40
2023-03-29T19:13:05.404Z,12.33
2023-03-29T19:15:33.849Z,12.34
2023-03-29T19:18:00.406Z,12.45
2023-03-29T19:20:27.347Z,12.39
2023-03-29T19:22:53.822Z,12.46
2023-03-29T19:25:20.588Z,12.43
2023-03-29T19:27:47.628Z,12.50
2023-03-29T19:30:15.104Z,12.43
2023-03-29T19:32:41.600Z,12.38
2023-03-29T19:35:09.548Z,12.46
2023-03-29T19:37:36.180Z,12.46
2023-03-29T19:40:02.683Z,12.23
2023-03-29T19:42:29.140Z,12.48
2023-03-29T19:44:55.613Z,12.37
2023-03-29T19:47:22.054Z,12.51
2023-03-29T19:49:48.593Z,12.57
2023-03-29T19:52:14.983Z,12.55
2023-03-29T19:54:42.409Z,12.57
2023-03-29T19:57:09.286Z,12.57
2023-03-29T19:59:37.653Z,12.61
2023-03-29T20:02:04.636Z,12.61
2023-03-29T20:04:33.282Z,12.68
2023-03-29T20:07:00.010Z,12.73
2023-03-29T20:09:26.596Z,12.76
2023-03-29T20:11:53.035Z,12.76
2023-03-29T20:14:19.461Z,12.85
2023-03-29T20:16:46.431Z,12.89
2023-03-29T20:19:14.207Z,12.91
2023-03-29T20:21:40.721Z,12.89
2023-03-29T20:24:08.768Z,12.97
2023-03-29T20:26:35.461Z,13.03
2023-03-29T20:29:02.043Z,13.04
2023-03-29T20:31:29.493Z,13.14
2023-03-29T20:33:57.538Z,13.13
2023-03-29T20:36:24.567Z,13.11
2023-03-29T20:38:51.382Z,13.24
2023-03-29T20:41:19.510Z,13.26
2023-03-29T20:43:46.153Z,13.32
2023-03-29T20:46:22.516Z,13.30
2023-03-29T20:48:55.030Z,13.37
2023-03-29T20:51:30.237Z,13.39
2023-03-29T20:54:02.797Z,13.39
2023-03-29T20:56:31.549Z,13.38
2023-03-29T20:58:58.841Z,13.42
2023-03-29T21:01:27.760Z,13.35
2023-03-29T21:03:54.339Z,13.42
2023-03-29T21:06:21.165Z,13.41
2023-03-29T21:08:47.660Z,13.39
2023-03-29T21:11:15.279Z,13.44
2023-03-29T21:13:42.900Z,13.47
2023-03-29T21:16:10.616Z,13.48
2023-03-29T21:18:38.701Z,13.47
2023-03-29T21:21:07.025Z,13.51
2023-03-29T21:23:33.906Z,13.45
2023-03-29T21:26:00.580Z,13.42
2023-03-29T21:28:27.012Z,13.45
2023-03-29T21:30:53.612Z,13.44
2023-03-29T21:33:20.389Z,13.44
2023-03-29T21:35:48.461Z,13.45
2023-03-29T21:38:15.456Z,13.44
2023-03-29T21:40:41.930Z,13.41
2023-03-29T21:43:09.148Z,13.44
2023-03-29T21:45:35.630Z,13.39
2023-03-29T21:48:02.247Z,13.40
2023-03-29T21:50:31.361Z,13.38
2023-03-29T21:53:01.543Z,13.37
2023-03-29T21:55:28.144Z,13.38
2023-03-29T21:57:54.720Z,13.36
2023-03-29T22:00:22.258Z,13.31
2023-03-29T22:02:48.727Z,13.42
2023-03-29T22:05:16.212Z,13.37
2023-03-29T22:07:42.747Z,13.35
2023-03-29T22:10:12.594Z,13.33
2023-03-29T22:12:39.631Z,13.29
2023-03-29T22:15:07.838Z,13.26
2023-03-29T22:17:35.752Z,13.26
2023-03-29T22:20:04.411Z,13.22
2023-03-29T22:22:30.878Z,13.25
2023-03-29T22:24:57.418Z,13.23
2023-03-29T22:27:23.830Z,13.19
2023-03-29T22:29:50.339Z,13.20
2023-03-29T22:32:16.826Z,13.23
2023-03-29T22:34:43.397Z,13.17
2023-03-29T22:37:09.825Z,13.22
2023-03-29T22:39:36.837Z,13.21
2023-03-29T22:42:03.484Z,13.25
2023-03-29T22:44:30.374Z,13.28
2023-03-29T22:46:56.789Z,13.32
2023-03-29T22:49:23.503Z,13.30
2023-03-29T22:51:49.924Z,13.34
2023-03-29T22:54:16.452Z,13.31
2023-03-29T22:56:43.226Z,13.29
2023-03-29T22:59:09.687Z,13.23
2023-03-29T23:01:36.112Z,13.24
2023-03-29T23:04:02.867Z,13.20
2023-03-29T23:06:29.288Z,13.27
2023-03-29T23:08:55.878Z,13.32
2023-03-29T23:11:22.762Z,13.32
2023-03-29T23:13:49.292Z,13.26
2023-03-29T23:16:16.173Z,13.27
2023-03-29T23:18:42.808Z,13.21
2023-03-29T23:21:10.392Z,13.13
2023-03-29T23:23:37.000Z,13.04
2023-03-29T23:26:03.897Z,13.06
2023-03-29T23:28:31.476Z,13.09
2023-03-29T23:31:04.449Z,13.05
2023-03-29T23:33:34.903Z,13.10
2023-03-29T23:36:07.668Z,13.09
2023-03-29T23:38:36.854Z,13.14
2023-03-29T23:41:06.130Z,13.13
2023-03-29T23:43:34.941Z,13.10
2023-03-29T23:46:04.221Z,13.09
2023-03-29T23:48:31.555Z,13.12
2023-03-29T23:50:58.077Z,13.14
2023-03-29T23:53:28.357Z,13.10
2023-03-29T23:56:02.936Z,13.14
2023-03-29T23:58:34.784Z,13.12
